Time;durP1;ratioP1;P1;durP2;ratioP2;P2;SDS_P1;SDS_P2;PMS_P1;PMS_P2;Temp;Humidity;BMP_temperature;BMP_pressure;BME280_temperature;BME280_humidity;BME280_pressure;Samples;Min_cycle;Max_cycle;Signal;HPM_P1;HPM_P2
2024/01/15 00:02:18;;;;;;;10.05;0.43;;;1.80;99.90;;;;;;5057655;28;20044;-65
2024/01/15 00:04:44;;;;;;;8.43;0.35;;;2.00;99.90;;;;;;5058741;28;20031;-64
2024/01/15 00:07:09;;;;;;;10.43;0.60;;;1.60;99.90;;;;;;5073725;28;20147;-64
2024/01/15 00:09:35;;;;;;;14.05;1.05;;;1.90;99.90;;;;;;5074541;28;20085;-65
2024/01/15 00:12:02;;;;;;;12.30;0.57;;;2.10;99.90;;;;;;5055876;28;20047;-65
2024/01/15 00:14:28;;;;;;;10.30;0.50;;;1.70;99.90;;;;;;5073881;28;20043;-63
2024/01/15 00:16:55;;;;;;;15.63;0.65;;;1.80;99.90;;;;;;5074643;28;20560;-64
2024/01/15 00:19:24;;;;;;;13.18;0.90;;;2.20;99.90;;;;;;5074801;28;20327;-63
2024/01/15 00:21:50;;;;;;;11.23;0.60;;;2.20;99.90;;;;;;5078780;27;20059;-64
2024/01/15 00:24:16;;;;;;;13.55;0.68;;;2.00;99.90;;;;;;5073619;28;20042;-65
2024/01/15 00:26:42;;;;;;;10.50;0.40;;;1.90;99.90;;;;;;5056182;28;20039;-64
2024/01/15 00:29:08;;;;;;;6.13;0.40;;;1.70;99.90;;;;;;5078271;28;20043;-63
2024/01/15 00:31:34;;;;;;;11.30;0.40;;;1.70;99.90;;;;;;5077511;28;20552;-63
2024/01/15 00:34:00;;;;;;;11.00;0.50;;;1.90;99.90;;;;;;5073025;28;20043;-65
2024/01/15 00:36:26;;;;;;;10.00;0.60;;;2.20;99.90;;;;;;5107366;27;20945;-63
2024/01/15 00:38:52;;;;;;;12.77;1.05;;;2.00;99.90;;;;;;5073307;28;20036;-65
2024/01/15 00:41:18;;;;;;;10.63;0.77;;;2.40;99.90;;;;;;5073086;28;20035;-63
2024/01/15 00:43:45;;;;;;;13.18;0.70;;;1.80;99.90;;;;;;5060677;28;20070;-63
2024/01/15 00:46:11;;;;;;;16.42;1.15;;;2.00;99.90;;;;;;5089678;28;20031;-64
2024/01/15 00:48:37;;;;;;;14.65;1.20;;;2.30;99.90;;;;;;5073495;28;20154;-64
2024/01/15 00:51:04;;;;;;;17.25;1.27;;;2.20;99.90;;;;;;5040863;28;20256;-64
2024/01/15 00:53:30;;;;;;;17.23;1.23;;;1.90;99.90;;;;;;5073156;28;20035;-64
2024/01/15 00:55:55;;;;;;;14.35;1.58;;;2.20;99.90;;;;;;5039725;28;20043;-64
2024/01/15 00:58:21;;;;;;;14.00;1.33;;;2.30;99.90;;;;;;5040055;28;20047;-64
2024/01/15 01:00:47;;;;;;;18.00;1.40;;;2.50;99.90;;;;;;5056574;28;20035;-64
2024/01/15 01:03:13;;;;;;;22.92;1.95;;;2.10;99.90;;;;;;5056895;28;20111;-63
2024/01/15 01:05:38;;;;;;;22.60;2.45;;;2.10;99.90;;;;;;5039724;28;20071;-64
2024/01/15 01:08:04;;;;;;;16.40;1.55;;;2.70;99.90;;;;;;5073122;28;20152;-64
2024/01/15 01:10:30;;;;;;;14.75;1.25;;;3.10;99.90;;;;;;5039676;28;20468;-63
2024/01/15 01:12:56;;;;;;;15.30;1.38;;;3.20;99.90;;;;;;5039901;28;20046;-63
2024/01/15 01:15:22;;;;;;;11.98;0.98;;;3.10;99.90;;;;;;5072696;28;20359;-64
2024/01/15 01:17:48;;;;;;;12.80;0.50;;;2.80;99.90;;;;;;5039471;28;20327;-64
2024/01/15 01:20:15;;;;;;;11.48;0.57;;;2.90;99.90;;;;;;5056440;28;20135;-63
2024/01/15 01:22:41;;;;;;;8.90;0.40;;;2.70;99.90;;;;;;5105502;27;20063;-64
2024/01/15 01:25:07;;;;;;;13.38;0.80;;;2.90;99.90;;;;;;5072651;28;20039;-65
2024/01/15 01:27:33;;;;;;;14.93;0.98;;;2.60;99.90;;;;;;5055441;28;20031;-64
2024/01/15 01:29:58;;;;;;;13.95;1.13;;;2.70;99.90;;;;;;5039256;28;20058;-64
2024/01/15 01:32:24;;;;;;;12.18;0.88;;;2.80;99.90;;;;;;5072721;28;20044;-63
2024/01/15 01:34:50;;;;;;;20.02;1.42;;;3.10;99.90;;;;;;5055871;28;20050;-63
2024/01/15 01:37:16;;;;;;;16.80;1.70;;;2.80;99.90;;;;;;5072413;28;20565;-64
2024/01/15 01:39:43;;;;;;;19.48;1.55;;;3.00;99.90;;;;;;5055740;28;20039;-64
2024/01/15 01:42:09;;;;;;;21.75;1.63;;;3.00;99.90;;;;;;5105640;27;20042;-65
2024/01/15 01:44:34;;;;;;;18.52;1.40;;;2.80;99.90;;;;;;5072146;28;20405;-64
2024/01/15 01:47:01;;;;;;;24.17;2.00;;;3.10;99.90;;;;;;5055730;28;20079;-64
2024/01/15 01:49:27;;;;;;;26.25;1.83;;;3.00;99.90;;;;;;5072778;28;20710;-64
2024/01/15 01:51:57;;;;;;;16.40;1.58;;;2.90;99.90;;;;;;5072150;28;20112;-69
2024/01/15 01:54:24;;;;;;;22.00;1.42;;;2.90;99.90;;;;;;5071404;28;20590;-65
2024/01/15 01:56:51;;;;;;;18.60;1.58;;;3.20;99.90;;;;;;5047319;28;20053;-65
2024/01/15 01:59:17;;;;;;;23.45;1.73;;;3.10;99.90;;;;;;5071752;28;20031;-64
2024/01/15 02:01:44;;;;;;;22.13;1.88;;;2.90;99.90;;;;;;5071565;28;20047;-65
2024/01/15 02:04:11;;;;;;;22.23;1.73;;;2.80;99.90;;;;;;5054491;28;20100;-64
2024/01/15 02:06:37;;;;;;;15.00;1.52;;;2.80;99.90;;;;;;5071500;28;20069;-65
2024/01/15 02:09:05;;;;;;;24.73;2.40;;;3.20;99.90;;;;;;5054723;28;20366;-64
2024/01/15 02:11:31;;;;;;;31.00;2.35;;;3.10;99.90;;;;;;5071661;28;20121;-65
2024/01/15 02:13:57;;;;;;;24.05;2.13;;;3.20;99.90;;;;;;5059835;28;20116;-65
2024/01/15 02:16:23;;;;;;;25.42;2.33;;;3.30;99.90;;;;;;5105879;27;20700;-64
2024/01/15 02:18:48;;;;;;;30.00;2.95;;;3.30;99.90;;;;;;5056002;28;20036;-64
2024/01/15 02:21:14;;;;;;;22.00;1.70;;;3.10;99.90;;;;;;5054890;28;20716;-64
2024/01/15 02:23:40;;;;;;;23.17;2.33;;;3.40;99.90;;;;;;5058935;28;20047;-64
2024/01/15 02:26:06;;;;;;;20.45;2.40;;;3.10;99.90;;;;;;5054361;28;20035;-65
2024/01/15 02:28:33;;;;;;;22.00;2.38;;;3.40;99.90;;;;;;5054552;28;20051;-64
2024/01/15 02:30:59;;;;;;;27.48;2.55;;;3.30;99.90;;;;;;5041597;28;20100;-65
2024/01/15 02:33:25;;;;;;;23.52;3.28;;;3.60;99.90;;;;;;5075683;28;20043;-64
2024/01/15 02:35:51;;;;;;;23.35;2.40;;;3.60;99.90;;;;;;5075851;28;20046;-64
2024/01/15 02:38:17;;;;;;;28.20;2.25;;;3.50;99.90;;;;;;5059592;28;20039;-63
2024/01/15 02:40:44;;;;;;;23.70;2.45;;;3.60;99.90;;;;;;5058418;28;20156;-65
2024/01/15 02:43:11;;;;;;;30.83;2.83;;;3.60;99.90;;;;;;5074925;28;20040;-64
2024/01/15 02:45:37;;;;;;;21.00;2.33;;;3.70;99.90;;;;;;5066337;28;20476;-64
2024/01/15 02:48:02;;;;;;;26.20;2.95;;;3.60;99.90;;;;;;5048395;28;20035;-64
2024/01/15 02:50:28;;;;;;;21.30;2.13;;;3.60;99.90;;;;;;5058873;28;20055;-64
2024/01/15 02:52:54;;;;;;;22.25;2.60;;;3.70;99.90;;;;;;5057812;28;20047;-64
2024/01/15 02:55:20;;;;;;;19.17;1.88;;;3.50;99.90;;;;;;5059102;28;20151;-64
2024/01/15 02:57:46;;;;;;;28.42;3.38;;;3.50;99.90;;;;;;5058885;28;20149;-64
2024/01/15 03:00:12;;;;;;;24.98;2.67;;;3.70;99.90;;;;;;5058293;28;20115;-64
2024/01/15 03:02:44;;;;;;;25.80;2.47;;;3.70;99.90;;;;;;5091485;28;20380;-65
2024/01/15 03:05:10;;;;;;;29.50;3.00;;;3.70;99.90;;;;;;5058000;28;20039;-65
2024/01/15 03:07:36;;;;;;;24.30;2.53;;;3.70;99.90;;;;;;5075516;28;20039;-65
2024/01/15 03:10:02;;;;;;;21.30;1.92;;;3.50;99.90;;;;;;5057605;28;20138;-66
2024/01/15 03:12:28;;;;;;;14.95;1.30;;;3.60;99.90;;;;;;5058012;28;20253;-65
2024/01/15 03:14:54;;;;;;;12.27;0.90;;;3.50;99.90;;;;;;5041466;28;20429;-64
2024/01/15 03:17:20;;;;;;;16.55;1.10;;;3.30;99.90;;;;;;5108670;27;20535;-66
2024/01/15 03:19:46;;;;;;;10.20;1.33;;;3.20;99.90;;;;;;5057862;28;20039;-64
2024/01/15 03:22:12;;;;;;;11.43;0.90;;;3.20;99.90;;;;;;5074659;28;20392;-64
2024/01/15 03:24:37;;;;;;;15.75;1.15;;;3.20;99.90;;;;;;5056620;28;20219;-64
2024/01/15 03:27:03;;;;;;;18.63;1.92;;;3.30;99.90;;;;;;5050103;28;20047;-64
2024/01/15 03:29:29;;;;;;;23.85;2.08;;;3.40;99.90;;;;;;5058461;28;20058;-64
2024/01/15 03:31:55;;;;;;;30.90;2.42;;;3.30;99.90;;;;;;5108479;27;20052;-64
2024/01/15 03:34:21;;;;;;;28.00;3.13;;;3.40;99.90;;;;;;5058047;28;20055;-64
2024/01/15 03:36:47;;;;;;;27.38;2.20;;;3.30;99.90;;;;;;5057891;28;20508;-66
2024/01/15 03:39:13;;;;;;;23.63;2.13;;;3.40;99.90;;;;;;5057659;28;20043;-64
2024/01/15 03:41:39;;;;;;;16.83;1.35;;;3.00;99.90;;;;;;5074203;28;20131;-64
2024/01/15 03:44:05;;;;;;;13.70;1.42;;;3.00;99.90;;;;;;5060963;28;20084;-65
2024/01/15 03:46:33;;;;;;;12.07;0.80;;;3.10;99.90;;;;;;5058027;28;20039;-64
2024/01/15 03:48:59;;;;;;;12.07;1.08;;;3.20;99.90;;;;;;5057366;28;20149;-64
2024/01/15 03:51:28;;;;;;;13.15;1.23;;;3.20;99.90;;;;;;5040290;28;20039;-65
2024/01/15 03:53:54;;;;;;;20.08;1.48;;;3.30;99.90;;;;;;5024131;28;20396;-65
2024/01/15 03:56:19;;;;;;;13.85;1.60;;;3.20;99.90;;;;;;5057608;28;20577;-63
2024/01/15 03:58:45;;;;;;;16.00;1.52;;;3.20;99.90;;;;;;5058076;28;20035;-63
2024/01/15 04:01:11;;;;;;;16.70;1.83;;;3.20;99.90;;;;;;5074082;28;20043;-64
2024/01/15 04:03:37;;;;;;;16.00;1.75;;;3.30;99.90;;;;;;5061447;28;20512;-64
2024/01/15 04:06:04;;;;;;;8.15;0.77;;;3.40;99.90;;;;;;5073587;28;20047;-64
2024/01/15 04:08:30;;;;;;;10.25;0.90;;;3.30;99.90;;;;;;5057770;28;20095;-64
2024/01/15 04:10:56;;;;;;;6.97;0.30;;;3.10;99.90;;;;;;5057219;28;20507;-65
2024/01/15 04:13:23;;;;;;;11.75;0.70;;;2.90;99.90;;;;;;5061738;28;20716;-64
2024/01/15 04:15:48;;;;;;;8.05;0.60;;;2.90;99.90;;;;;;5041187;28;20043;-64
2024/01/15 04:18:17;;;;;;;12.10;0.88;;;3.00;99.90;;;;;;5073246;28;20097;-64
2024/01/15 04:20:43;;;;;;;12.63;0.98;;;3.00;99.90;;;;;;5089955;28;20066;-64
2024/01/15 04:23:09;;;;;;;13.13;1.20;;;2.90;99.90;;;;;;5056889;28;20130;-65
2024/01/15 04:25:35;;;;;;;14.05;0.90;;;3.20;99.90;;;;;;5073616;28;20055;-64
2024/01/15 04:28:01;;;;;;;12.90;0.98;;;3.40;99.90;;;;;;5074127;28;20119;-67
2024/01/15 04:30:26;;;;;;;12.30;1.20;;;3.40;99.90;;;;;;5057126;28;20267;-64
2024/01/15 04:32:52;;;;;;;10.55;0.90;;;3.40;99.90;;;;;;5044058;28;20047;-64
2024/01/15 04:35:18;;;;;;;13.18;0.80;;;3.40;99.90;;;;;;5106268;27;20055;-65
2024/01/15 04:37:43;;;;;;;16.42;1.45;;;3.10;99.90;;;;;;5049943;28;20051;-64
2024/01/15 04:40:10;;;;;;;9.68;0.73;;;3.30;99.90;;;;;;5056343;28;20048;-64
2024/01/15 04:42:38;;;;;;;8.50;0.40;;;3.30;99.90;;;;;;5075884;28;20047;-64
2024/01/15 04:45:04;;;;;;;7.13;0.60;;;3.30;99.90;;;;;;5057085;28;20118;-64
2024/01/15 04:47:30;;;;;;;8.43;0.68;;;3.10;99.90;;;;;;5056471;28;20066;-64
2024/01/15 04:49:56;;;;;;;12.18;1.40;;;3.00;99.90;;;;;;5071830;28;20486;-66
2024/01/15 04:52:22;;;;;;;8.85;0.50;;;2.70;99.90;;;;;;5050630;28;20067;-64
2024/01/15 04:54:47;;;;;;;7.80;0.40;;;2.30;99.90;;;;;;5106941;27;20046;-65
2024/01/15 04:57:13;;;;;;;11.50;0.50;;;2.30;99.90;;;;;;5044935;28;20346;-65
2024/01/15 04:59:39;;;;;;;8.43;0.77;;;2.40;99.90;;;;;;5056594;28;20389;-65
2024/01/15 05:02:05;;;;;;;8.65;0.47;;;2.10;99.90;;;;;;5073211;28;20040;-65
2024/01/15 05:04:31;;;;;;;9.27;0.75;;;2.20;99.90;;;;;;5027996;28;20046;-65
2024/01/15 05:06:57;;;;;;;7.88;0.32;;;2.50;99.90;;;;;;5073512;28;20027;-65
2024/01/15 05:09:22;;;;;;;10.60;0.50;;;2.30;99.90;;;;;;5073214;28;20084;-65
2024/01/15 05:11:48;;;;;;;6.60;0.47;;;2.60;99.90;;;;;;5056152;28;20043;-65
2024/01/15 05:14:14;;;;;;;10.63;0.70;;;2.50;99.90;;;;;;5026506;28;20591;-65
2024/01/15 05:16:40;;;;;;;7.40;0.50;;;2.70;99.90;;;;;;5055658;28;20135;-66
2024/01/15 05:19:08;;;;;;;13.73;0.50;;;2.60;99.90;;;;;;5039250;28;20070;-65
2024/01/15 05:21:34;;;;;;;11.82;1.20;;;2.30;99.90;;;;;;5072589;28;20055;-65
2024/01/15 05:23:59;;;;;;;14.82;1.02;;;2.50;99.90;;;;;;5072826;28;20042;-65
2024/01/15 05:26:25;;;;;;;10.05;0.63;;;2.60;99.90;;;;;;5040836;28;20043;-65
2024/01/15 05:28:51;;;;;;;7.45;0.40;;;2.50;99.90;;;;;;5057208;28;20520;-64
2024/01/15 05:31:17;;;;;;;5.28;0.40;;;2.30;99.90;;;;;;5055347;28;20549;-65
2024/01/15 05:33:43;;;;;;;6.47;0.28;;;2.50;99.90;;;;;;5072764;28;20305;-64
2024/01/15 05:36:08;;;;;;;6.75;0.50;;;2.50;99.90;;;;;;5072859;28;20294;-64
2024/01/15 05:38:34;;;;;;;8.07;0.60;;;2.50;99.90;;;;;;5056147;28;20087;-65
2024/01/15 05:41:00;;;;;;;5.43;0.30;;;2.20;99.90;;;;;;5038704;28;20244;-65
2024/01/15 05:43:26;;;;;;;7.45;1.00;;;2.30;99.90;;;;;;5056272;28;20123;-65
2024/01/15 05:45:51;;;;;;;8.10;0.50;;;2.10;99.90;;;;;;5055911;28;20502;-64
2024/01/15 05:48:17;;;;;;;10.95;0.45;;;2.30;99.90;;;;;;5055793;28;20035;-64
2024/01/15 05:50:43;;;;;;;5.60;0.50;;;2.20;99.90;;;;;;5071549;28;20116;-64
2024/01/15 05:53:09;;;;;;;9.80;0.68;;;2.10;99.90;;;;;;5072236;28;20051;-65
2024/01/15 05:55:36;;;;;;;13.23;0.93;;;2.00;99.90;;;;;;5043649;28;20035;-65
2024/01/15 05:58:02;;;;;;;11.48;0.70;;;2.20;99.90;;;;;;5106118;27;20039;-64
2024/01/15 06:00:28;;;;;;;10.98;0.88;;;2.10;99.90;;;;;;5055068;28;20335;-64
2024/01/15 06:02:57;;;;;;;15.05;0.80;;;2.10;99.90;;;;;;5055396;28;20035;-66
2024/01/15 06:05:22;;;;;;;16.55;1.23;;;2.10;99.90;;;;;;5071469;28;20047;-65
2024/01/15 06:07:48;;;;;;;12.27;1.20;;;2.00;99.90;;;;;;5055184;28;20031;-64
2024/01/15 06:10:14;;;;;;;11.68;0.95;;;2.10;99.90;;;;;;5072754;28;20073;-65
2024/01/15 06:12:40;;;;;;;12.40;1.17;;;2.20;99.90;;;;;;5055326;28;20413;-65
2024/01/15 06:15:05;;;;;;;13.63;1.02;;;2.40;99.90;;;;;;5056345;28;20043;-65
2024/01/15 06:17:31;;;;;;;12.15;1.27;;;2.40;99.90;;;;;;5038551;28;20043;-65
2024/01/15 06:19:57;;;;;;;13.25;0.90;;;2.60;99.90;;;;;;5055222;28;20039;-65
2024/01/15 06:22:23;;;;;;;12.95;1.00;;;2.30;99.90;;;;;;5057188;28;20053;-65
2024/01/15 06:24:49;;;;;;;11.68;1.05;;;2.30;99.90;;;;;;5022146;28;20137;-64
2024/01/15 06:27:15;;;;;;;10.65;0.68;;;2.40;99.90;;;;;;5037367;28;20041;-65
2024/01/15 06:29:47;;;;;;;12.35;1.05;;;2.50;99.90;;;;;;5048494;28;20090;-65
2024/01/15 06:32:12;;;;;;;12.82;1.00;;;2.40;99.90;;;;;;5052106;28;20147;-65
2024/01/15 06:34:39;;;;;;;8.98;0.57;;;2.30;99.90;;;;;;5047259;28;20039;-66
2024/01/15 06:37:05;;;;;;;3.38;0.20;;;2.30;99.90;;;;;;5031698;28;20151;-64
2024/01/15 06:39:30;;;;;;;2.35;0.10;;;2.00;99.90;;;;;;5031657;28;20037;-65
2024/01/15 06:41:56;;;;;;;4.03;0.10;;;1.90;99.90;;;;;;5031431;28;20041;-64
2024/01/15 06:44:22;;;;;;;1.52;0.10;;;1.70;99.90;;;;;;5048185;28;20040;-65
2024/01/15 06:46:48;;;;;;;3.30;0.10;;;1.60;99.90;;;;;;5031476;28;20029;-65
2024/01/15 06:49:14;;;;;;;2.92;0.10;;;1.50;99.90;;;;;;5048451;28;20101;-66
2024/01/15 06:51:41;;;;;;;2.75;0.38;;;1.70;99.90;;;;;;5052456;28;20469;-65
2024/01/15 06:54:07;;;;;;;8.15;0.30;;;1.40;99.90;;;;;;5032047;28;20036;-64
2024/01/15 06:56:33;;;;;;;10.20;0.35;;;1.60;99.90;;;;;;5047155;28;20282;-64
2024/01/15 06:58:59;;;;;;;3.67;0.17;;;1.30;99.90;;;;;;5020350;28;20049;-65
2024/01/15 07:01:24;;;;;;;9.13;0.32;;;1.50;99.90;;;;;;5051618;28;20546;-65
2024/01/15 07:03:50;;;;;;;6.43;0.30;;;1.30;99.90;;;;;;5048144;28;20202;-65
2024/01/15 07:06:17;;;;;;;11.07;0.70;;;1.40;99.90;;;;;;5031258;28;20045;-65
2024/01/15 07:08:43;;;;;;;8.25;0.50;;;1.30;99.90;;;;;;5030432;28;20127;-65
2024/01/15 07:11:08;;;;;;;8.35;0.63;;;1.00;99.90;;;;;;5048019;28;20040;-65
2024/01/15 07:13:36;;;;;;;14.65;0.70;;;0.90;99.90;;;;;;5047983;28;20044;-65
2024/01/15 07:16:02;;;;;;;12.13;0.77;;;1.00;99.90;;;;;;5032245;28;20051;-66
2024/01/15 07:18:28;;;;;;;17.52;1.23;;;1.60;99.90;;;;;;5035284;28;20373;-64
2024/01/15 07:20:53;;;;;;;15.45;1.10;;;1.50;99.90;;;;;;5051522;28;20123;-65
2024/01/15 07:23:19;;;;;;;13.90;1.40;;;1.40;99.90;;;;;;5057261;28;20044;-65
2024/01/15 07:25:45;;;;;;;21.55;1.67;;;1.20;99.90;;;;;;5043041;28;20047;-65
2024/01/15 07:28:11;;;;;;;21.20;1.13;;;1.60;99.90;;;;;;5058564;28;20417;-65
2024/01/15 07:30:39;;;;;;;16.50;1.30;;;1.30;99.90;;;;;;5070869;28;20044;-66
2024/01/15 07:33:05;;;;;;;22.40;1.90;;;1.50;99.90;;;;;;5071397;28;20040;-64
2024/01/15 07:35:32;;;;;;;26.55;2.03;;;1.40;99.90;;;;;;5055048;28;20113;-64
2024/01/15 07:37:58;;;;;;;22.85;1.77;;;1.80;99.90;;;;;;5104815;27;20078;-65
2024/01/15 07:40:24;;;;;;;16.67;1.30;;;1.40;99.90;;;;;;5075648;28;20545;-64
2024/01/15 07:42:51;;;;;;;21.83;2.63;;;1.80;99.90;;;;;;5105737;27;20525;-65
2024/01/15 07:45:17;;;;;;;21.52;2.28;;;1.80;99.90;;;;;;5043221;28;20539;-64
2024/01/15 07:47:43;;;;;;;16.00;1.63;;;1.30;99.90;;;;;;5071392;28;20042;-65
2024/01/15 07:50:08;;;;;;;21.73;2.13;;;1.40;99.90;;;;;;5043013;28;20572;-64
2024/01/15 07:52:34;;;;;;;11.95;1.20;;;1.60;99.90;;;;;;5054597;28;20206;-64
2024/01/15 07:55:00;;;;;;;14.40;1.13;;;1.80;99.90;;;;;;5055567;28;20059;-65
2024/01/15 07:57:26;;;;;;;21.30;1.63;;;1.50;99.90;;;;;;5072345;28;20347;-65
2024/01/15 07:59:52;;;;;;;13.82;1.48;;;1.30;99.90;;;;;;5058772;28;20044;-65
2024/01/15 08:02:18;;;;;;;8.23;0.80;;;1.70;99.90;;;;;;5073494;28;20527;-64
2024/01/15 08:04:45;;;;;;;11.75;0.85;;;1.60;99.90;;;;;;5058803;28;20131;-64
2024/01/15 08:07:13;;;;;;;9.57;0.80;;;1.50;99.90;;;;;;5057028;28;20526;-65
2024/01/15 08:09:38;;;;;;;8.93;1.10;;;1.40;99.90;;;;;;5073672;28;20040;-64
2024/01/15 08:12:06;;;;;;;16.48;1.05;;;1.50;99.90;;;;;;5074081;28;20612;-64
2024/01/15 08:14:32;;;;;;;12.18;1.30;;;1.60;99.90;;;;;;5056856;28;20135;-64
2024/01/15 08:16:57;;;;;;;13.52;1.20;;;1.60;99.90;;;;;;5073439;28;20302;-65
2024/01/15 08:19:23;;;;;;;8.75;0.70;;;1.90;99.90;;;;;;5085453;28;20055;-64
2024/01/15 08:21:49;;;;;;;11.15;1.00;;;1.90;99.90;;;;;;5098631;27;20427;-64
2024/01/15 08:24:16;;;;;;;7.78;0.50;;;1.70;99.90;;;;;;5047996;28;20036;-65
2024/01/15 08:26:43;;;;;;;10.93;0.80;;;1.90;99.90;;;;;;5056510;28;20099;-64
2024/01/15 08:29:08;;;;;;;11.90;0.82;;;1.80;99.90;;;;;;5033763;28;20047;-65
2024/01/15 08:31:34;;;;;;;9.82;0.65;;;2.00;99.90;;;;;;4964418;28;20057;-65
2024/01/15 08:34:01;;;;;;;18.90;1.45;;;2.10;99.90;;;;;;5022105;28;20053;-64
2024/01/15 08:36:29;;;;;;;12.02;1.27;;;2.00;99.90;;;;;;5020346;28;20504;-64
2024/01/15 08:38:55;;;;;;;12.23;1.00;;;2.10;99.90;;;;;;5031403;28;20817;-65
2024/01/15 08:41:21;;;;;;;11.02;0.95;;;2.10;99.90;;;;;;5029170;28;20041;-66
2024/01/15 08:43:47;;;;;;;15.70;1.35;;;1.70;99.90;;;;;;5031273;28;20033;-65
2024/01/15 08:46:12;;;;;;;15.60;1.33;;;2.10;99.90;;;;;;5031748;28;20219;-65
2024/01/15 08:48:39;;;;;;;11.85;1.08;;;1.70;99.90;;;;;;5031514;28;20041;-66
2024/01/15 08:51:06;;;;;;;8.43;0.70;;;1.70;99.90;;;;;;5015771;28;20078;-65
2024/01/15 08:53:34;;;;;;;11.38;0.63;;;1.60;99.90;;;;;;5031785;28;20456;-65
2024/01/15 08:56:00;;;;;;;11.75;0.80;;;1.60;99.90;;;;;;5022152;28;20049;-65
2024/01/15 08:58:26;;;;;;;11.77;0.93;;;2.00;99.90;;;;;;5013282;28;20100;-65
2024/01/15 09:00:52;;;;;;;14.73;1.30;;;1.80;99.90;;;;;;5031507;28;20666;-64
2024/01/15 09:03:18;;;;;;;15.75;1.05;;;1.90;99.90;;;;;;5045120;28;20034;-64
2024/01/15 09:05:43;;;;;;;15.32;1.02;;;1.90;99.90;;;;;;5031759;28;20223;-65
2024/01/15 09:08:09;;;;;;;8.45;0.60;;;1.60;99.90;;;;;;4983095;28;20241;-64
2024/01/15 09:10:35;;;;;;;13.00;1.13;;;1.60;99.90;;;;;;5015194;28;20249;-64
2024/01/15 09:13:01;;;;;;;16.60;1.48;;;1.40;99.90;;;;;;5031418;28;20100;-64
2024/01/15 09:15:27;;;;;;;15.38;1.27;;;1.50;99.90;;;;;;4998256;28;20124;-64
2024/01/15 09:17:53;;;;;;;15.00;0.70;;;1.50;99.90;;;;;;5032649;28;20071;-65
2024/01/15 09:20:19;;;;;;;9.32;0.65;;;1.40;99.90;;;;;;5029712;28;20510;-64
2024/01/15 09:22:45;;;;;;;12.60;1.00;;;1.60;99.90;;;;;;5045754;28;20709;-64
2024/01/15 09:25:11;;;;;;;11.07;0.70;;;1.50;99.90;;;;;;5045195;28;20449;-66
2024/01/15 09:27:37;;;;;;;8.60;0.65;;;1.30;99.90;;;;;;5054059;28;20044;-64
2024/01/15 09:30:04;;;;;;;9.90;0.57;;;1.70;99.90;;;;;;5034927;28;20251;-63
2024/01/15 09:32:30;;;;;;;6.72;0.88;;;1.50;99.90;;;;;;5036618;28;20041;-66
2024/01/15 09:34:56;;;;;;;16.77;0.90;;;1.30;99.90;;;;;;5022214;28;20728;-64
2024/01/15 09:37:23;;;;;;;9.90;0.47;;;1.30;99.90;;;;;;5020540;28;20106;-64
2024/01/15 09:39:50;;;;;;;9.40;0.73;;;1.30;99.90;;;;;;5023103;28;20044;-64
2024/01/15 09:42:16;;;;;;;9.82;0.52;;;1.40;99.90;;;;;;5036595;28;20505;-65
2024/01/15 09:44:46;;;;;;;4.13;0.30;;;1.40;99.90;;;;;;5036408;28;20453;-65
2024/01/15 09:47:12;;;;;;;6.07;0.35;;;1.70;99.90;;;;;;5019907;28;20395;-64
2024/01/15 09:49:40;;;;;;;4.53;0.30;;;1.70;99.90;;;;;;5071684;28;20043;-64
2024/01/15 09:52:07;;;;;;;4.57;0.30;;;1.70;99.90;;;;;;5037121;28;20328;-65
2024/01/15 09:54:34;;;;;;;6.05;0.30;;;1.60;99.90;;;;;;5036233;28;20573;-66
2024/01/15 09:57:01;;;;;;;8.23;0.50;;;1.80;99.90;;;;;;5022825;28;20824;-65
2024/01/15 09:59:28;;;;;;;6.80;0.45;;;1.90;99.90;;;;;;5036029;28;20371;-65
2024/01/15 10:01:58;;;;;;;7.68;0.55;;;1.90;99.90;;;;;;5021555;28;20733;-63
2024/01/15 10:04:24;;;;;;;12.10;0.73;;;1.40;99.90;;;;;;5036933;28;20228;-64
2024/01/15 10:06:51;;;;;;;5.63;0.50;;;1.30;99.90;;;;;;5037633;28;20040;-65
2024/01/15 10:09:17;;;;;;;15.30;1.00;;;1.20;99.90;;;;;;5059344;28;20097;-66
2024/01/15 10:11:44;;;;;;;11.57;0.90;;;1.40;99.90;;;;;;5056417;28;20128;-63
2024/01/15 10:14:13;;;;;;;18.33;1.63;;;1.40;99.90;;;;;;5052827;28;20048;-64
2024/01/15 10:16:40;;;;;;;12.80;1.27;;;1.40;99.90;;;;;;5037408;28;20044;-64
2024/01/15 10:19:06;;;;;;;16.88;1.25;;;1.10;99.90;;;;;;5053194;28;20377;-67
2024/01/15 10:21:34;;;;;;;18.08;1.02;;;1.30;99.90;;;;;;5024275;28;20111;-63
2024/01/15 10:24:01;;;;;;;20.55;1.13;;;1.60;99.90;;;;;;5031536;28;20080;-64
2024/01/15 10:26:27;;;;;;;17.05;1.25;;;1.20;99.90;;;;;;5018344;28;20229;-64
2024/01/15 10:28:53;;;;;;;16.40;1.17;;;1.80;99.90;;;;;;5038997;28;20032;-63
2024/01/15 10:31:21;;;;;;;13.88;1.15;;;1.50;99.90;;;;;;5034516;28;20367;-63
2024/01/15 10:33:51;;;;;;;14.05;0.93;;;1.40;99.90;;;;;;5057048;28;20036;-64
2024/01/15 10:36:17;;;;;;;14.90;0.85;;;1.70;99.90;;;;;;5041638;28;20040;-64
2024/01/15 10:38:44;;;;;;;12.98;1.15;;;1.60;99.90;;;;;;5015543;28;20040;-65
2024/01/15 10:41:10;;;;;;;13.73;1.05;;;1.20;99.90;;;;;;5031330;28;20439;-64
2024/01/15 10:43:36;;;;;;;13.60;1.00;;;1.30;99.90;;;;;;5032169;28;20696;-64
2024/01/15 10:46:03;;;;;;;12.02;1.05;;;1.30;99.90;;;;;;5033026;28;20187;-64
2024/01/15 10:48:30;;;;;;;18.15;1.15;;;1.50;99.90;;;;;;5014058;28;20041;-65
2024/01/15 10:50:58;;;;;;;14.05;1.10;;;1.30;99.90;;;;;;5016681;28;20051;-65
2024/01/15 10:53:25;;;;;;;13.27;1.13;;;1.50;99.90;;;;;;5038124;28;20044;-64
2024/01/15 10:55:54;;;;;;;17.17;1.13;;;1.40;99.90;;;;;;5017154;28;20259;-64
2024/01/15 10:58:23;;;;;;;10.70;1.08;;;1.20;99.90;;;;;;5021276;28;20049;-64
2024/01/15 11:00:49;;;;;;;14.65;1.58;;;1.40;99.90;;;;;;5040069;28;20144;-64
2024/01/15 11:03:16;;;;;;;8.98;1.02;;;1.80;99.90;;;;;;5035051;28;20040;-65
2024/01/15 11:05:43;;;;;;;6.20;0.57;;;1.60;99.90;;;;;;5035460;28;20049;-65
2024/01/15 11:08:12;;;;;;;4.93;0.40;;;1.90;99.90;;;;;;5069237;28;20256;-65
2024/01/15 11:10:48;;;;;;;8.20;0.52;;;2.20;99.90;;;;;;5035627;28;20204;-65
2024/01/15 11:13:21;;;;;;;6.72;0.40;;;2.00;99.90;;;;;;5034852;28;20530;-65
2024/01/15 11:15:57;;;;;;;3.90;0.40;;;2.40;99.90;;;;;;5037141;28;20069;-66
2024/01/15 11:18:23;;;;;;;6.70;0.30;;;2.20;99.90;;;;;;5036325;28;20067;-65
2024/01/15 11:21:27;;;;;;;7.18;0.40;;;2.60;99.90;;;;;;5036089;28;20040;-66
2024/01/15 11:23:56;;;;;;;6.13;0.40;;;2.50;99.90;;;;;;5018220;28;20107;-66
2024/01/15 11:26:32;;;;;;;3.80;0.30;;;2.30;99.90;;;;;;5036440;28;20068;-67
2024/01/15 11:29:00;;;;;;;4.93;0.30;;;2.40;99.90;;;;;;5035437;28;20047;-66
2024/01/15 11:31:49;;;;;;;5.15;0.30;;;2.20;99.90;;;;;;5052456;28;20448;-66
2024/01/15 11:34:15;;;;;;;6.07;0.20;;;2.20;99.90;;;;;;5006880;28;20123;-66
2024/01/15 11:36:53;;;;;;;4.13;0.30;;;1.90;99.90;;;;;;5018231;28;20036;-65
2024/01/15 11:39:32;;;;;;;6.90;0.70;;;2.20;99.90;;;;;;5051315;28;20037;-65
2024/01/15 11:41:59;;;;;;;6.53;0.30;;;1.80;99.90;;;;;;5037471;28;20482;-66
2024/01/15 11:44:29;;;;;;;5.90;0.40;;;1.80;99.90;;;;;;5034772;28;20051;-65
2024/01/15 11:47:06;;;;;;;5.82;0.40;;;2.00;99.90;;;;;;5019250;28;20645;-68
2024/01/15 11:49:56;;;;;;;10.52;0.52;;;1.90;99.90;;;;;;5038545;28;20313;-65
2024/01/15 11:52:23;;;;;;;5.97;0.30;;;2.40;99.90;;;;;;5021583;28;20048;-65
2024/01/15 11:55:10;;;;;;;7.40;0.25;;;2.40;99.90;;;;;;5022758;28;20051;-65
2024/01/15 11:57:45;;;;;;;4.90;0.20;;;2.10;99.90;;;;;;5069309;28;20213;-66
2024/01/15 12:00:12;;;;;;;5.10;0.35;;;2.60;99.90;;;;;;5035930;28;20289;-66
2024/01/15 12:02:49;;;;;;;8.40;0.20;;;4.10;99.90;;;;;;5034250;28;20043;-65
2024/01/15 12:05:18;;;;;;;6.80;1.13;;;5.00;99.90;;;;;;5034870;28;20044;-66
2024/01/15 12:07:47;;;;;;;3.00;0.22;;;5.30;99.90;;;;;;5021087;28;20036;-66
2024/01/15 12:10:18;;;;;;;1.90;0.10;;;5.30;99.90;;;;;;5068693;28;20040;-66
2024/01/15 12:12:58;;;;;;;2.92;0.10;;;4.40;99.90;;;;;;5036913;28;20083;-66
2024/01/15 12:15:26;;;;;;;4.97;0.10;;;3.60;99.90;;;;;;5021766;28;20187;-66
2024/01/15 12:17:54;;;;;;;2.95;0.20;;;3.40;99.90;;;;;;5019170;28;20036;-67
2024/01/15 12:20:20;;;;;;;2.65;0.10;;;3.30;99.90;;;;;;5049987;28;20128;-68
2024/01/15 12:22:46;;;;;;;4.35;0.30;;;3.20;99.90;;;;;;5038793;28;20033;-66
2024/01/15 12:25:12;;;;;;;7.22;0.25;;;2.70;99.90;;;;;;5036126;28;20485;-66
2024/01/15 12:27:38;;;;;;;6.85;0.20;;;3.00;99.90;;;;;;5019858;28;20540;-67
2024/01/15 12:30:04;;;;;;;6.95;0.30;;;2.60;99.90;;;;;;5018826;28;20037;-67
2024/01/15 12:32:30;;;;;;;6.40;0.60;;;2.70;99.90;;;;;;5021719;28;20427;-67
2024/01/15 12:34:56;;;;;;;10.48;0.50;;;2.90;99.90;;;;;;5020405;28;20055;-66
2024/01/15 12:37:24;;;;;;;6.10;0.30;;;3.10;99.90;;;;;;5023180;28;20055;-67
2024/01/15 12:39:54;;;;;;;9.52;0.65;;;3.80;99.90;;;;;;5037600;28;20073;-67
2024/01/15 12:42:21;;;;;;;8.85;0.40;;;3.60;99.90;;;;;;5023867;28;20057;-67
2024/01/15 12:44:48;;;;;;;5.78;0.25;;;3.60;99.90;;;;;;5018291;28;20590;-68
2024/01/15 12:47:14;;;;;;;6.47;0.30;;;3.70;99.90;;;;;;5018884;28;20044;-66
2024/01/15 12:49:40;;;;;;;8.05;0.30;;;3.40;99.90;;;;;;5039126;28;20029;-67